sensor_id;sensor_type;location;lat;lon;timestamp;pressure;altitude;pressure_sealevel;temperature
41940;BMP180;23057;48.554;14.454;2022-09-19T00:00:38;93178.00;;;13.40
41940;BMP180;23057;48.554;14.454;2022-09-19T00:03:09;93185.00;;;13.40
41940;BMP180;23057;48.554;14.454;2022-09-19T00:05:40;93183.00;;;13.40
41940;BMP180;23057;48.554;14.454;2022-09-19T00:08:11;93195.00;;;13.30
41940;BMP180;23057;48.554;14.454;2022-09-19T00:10:42;93196.00;;;13.30
41940;BMP180;23057;48.554;14.454;2022-09-19T00:13:13;93198.00;;;13.30
41940;BMP180;23057;48.554;14.454;2022-09-19T00:15:49;93189.00;;;13.30
41940;BMP180;23057;48.554;14.454;2022-09-19T00:18:20;93187.00;;;13.30
41940;BMP180;23057;48.554;14.454;2022-09-19T00:20:51;93178.00;;;13.30
41940;BMP180;23057;48.554;14.454;2022-09-19T00:23:21;93179.00;;;13.30
41940;BMP180;23057;48.554;14.454;2022-09-19T00:26:13;93187.00;;;13.30
41940;BMP180;23057;48.554;14.454;2022-09-19T00:28:47;93171.00;;;13.30
41940;BMP180;23057;48.554;14.454;2022-09-19T00:31:19;93166.00;;;13.30
41940;BMP180;23057;48.554;14.454;2022-09-19T00:33:50;93169.00;;;13.20
41940;BMP180;23057;48.554;14.454;2022-09-19T00:36:23;93156.00;;;13.20
41940;BMP180;23057;48.554;14.454;2022-09-19T00:38:54;93162.00;;;13.20
41940;BMP180;23057;48.554;14.454;2022-09-19T00:41:26;93163.00;;;13.20
41940;BMP180;23057;48.554;14.454;2022-09-19T00:43:59;93164.00;;;13.20
41940;BMP180;23057;48.554;14.454;2022-09-19T00:46:34;93157.00;;;13.20
41940;BMP180;23057;48.554;14.454;2022-09-19T00:49:09;93160.00;;;13.20
41940;BMP180;23057;48.554;14.454;2022-09-19T00:51:48;93156.00;;;13.20
41940;BMP180;23057;48.554;14.454;2022-09-19T00:54:25;93162.00;;;13.30
41940;BMP180;23057;48.554;14.454;2022-09-19T00:57:00;93153.00;;;13.30
41940;BMP180;23057;48.554;14.454;2022-09-19T00:59:35;93152.00;;;13.30
41940;BMP180;23057;48.554;14.454;2022-09-19T01:02:08;93151.00;;;13.30
41940;BMP180;23057;48.554;14.454;2022-09-19T01:04:39;93155.00;;;13.30
41940;BMP180;23057;48.554;14.454;2022-09-19T01:10:38;93140.00;;;13.50
41940;BMP180;23057;48.554;14.454;2022-09-19T01:13:18;93142.00;;;13.50
41940;BMP180;23057;48.554;14.454;2022-09-19T01:16:04;93147.00;;;13.60
41940;BMP180;23057;48.554;14.454;2022-09-19T01:18:48;93139.00;;;13.60
41940;BMP180;23057;48.554;14.454;2022-09-19T01:21:35;93137.00;;;13.60
41940;BMP180;23057;48.554;14.454;2022-09-19T01:27:27;93142.00;;;13.60
41940;BMP180;23057;48.554;14.454;2022-09-19T01:30:10;93153.00;;;13.60
41940;BMP180;23057;48.554;14.454;2022-09-19T01:32:57;93155.00;;;13.70
41940;BMP180;23057;48.554;14.454;2022-09-19T01:35:36;93162.00;;;13.70
41940;BMP180;23057;48.554;14.454;2022-09-19T01:38:13;93159.00;;;13.70
41940;BMP180;23057;48.554;14.454;2022-09-19T01:40:51;93163.00;;;13.70
41940;BMP180;23057;48.554;14.454;2022-09-19T01:43:22;93168.00;;;13.70
41940;BMP180;23057;48.554;14.454;2022-09-19T01:45:56;93169.00;;;13.70
41940;BMP180;23057;48.554;14.454;2022-09-19T01:48:46;93170.00;;;13.70
41940;BMP180;23057;48.554;14.454;2022-09-19T01:51:31;93174.00;;;13.60
41940;BMP180;23057;48.554;14.454;2022-09-19T01:54:20;93166.00;;;13.60
41940;BMP180;23057;48.554;14.454;2022-09-19T02:02:47;93137.00;;;13.40
41940;BMP180;23057;48.554;14.454;2022-09-19T02:05:33;93145.00;;;13.40
41940;BMP180;23057;48.554;14.454;2022-09-19T02:08:35;93158.00;;;13.40
41940;BMP180;23057;48.554;14.454;2022-09-19T02:11:11;93160.00;;;13.40
41940;BMP180;23057;48.554;14.454;2022-09-19T02:13:57;93163.00;;;13.50
41940;BMP180;23057;48.554;14.454;2022-09-19T02:16:39;93170.00;;;13.50
41940;BMP180;23057;48.554;14.454;2022-09-19T02:19:28;93175.00;;;13.50
41940;BMP180;23057;48.554;14.454;2022-09-19T02:22:06;93182.00;;;13.50
41940;BMP180;23057;48.554;14.454;2022-09-19T02:24:42;93184.00;;;13.50
41940;BMP180;23057;48.554;14.454;2022-09-19T02:27:20;93192.00;;;13.40
41940;BMP180;23057;48.554;14.454;2022-09-19T02:29:59;93189.00;;;13.40
41940;BMP180;23057;48.554;14.454;2022-09-19T02:32:36;93189.00;;;13.30
41940;BMP180;23057;48.554;14.454;2022-09-19T02:35:09;93193.00;;;13.20
41940;BMP180;23057;48.554;14.454;2022-09-19T02:37:46;93195.00;;;13.20
41940;BMP180;23057;48.554;14.454;2022-09-19T02:40:35;93212.00;;;13.10
41940;BMP180;23057;48.554;14.454;2022-09-19T02:43:26;93212.00;;;13.00
41940;BMP180;23057;48.554;14.454;2022-09-19T02:46:12;93207.00;;;13.00
41940;BMP180;23057;48.554;14.454;2022-09-19T02:49:06;93211.00;;;12.90
41940;BMP180;23057;48.554;14.454;2022-09-19T02:51:53;93219.00;;;12.90
41940;BMP180;23057;48.554;14.454;2022-09-19T02:54:31;93227.00;;;12.90
41940;BMP180;23057;48.554;14.454;2022-09-19T02:57:09;93230.00;;;13.00
41940;BMP180;23057;48.554;14.454;2022-09-19T02:59:46;93235.00;;;13.00
41940;BMP180;23057;48.554;14.454;2022-09-19T03:02:23;93235.00;;;13.10
41940;BMP180;23057;48.554;14.454;2022-09-19T03:05:03;93234.00;;;13.10
41940;BMP180;23057;48.554;14.454;2022-09-19T03:07:43;93228.00;;;13.10
41940;BMP180;23057;48.554;14.454;2022-09-19T03:10:28;93225.00;;;13.10
41940;BMP180;23057;48.554;14.454;2022-09-19T03:13:06;93233.00;;;13.10
41940;BMP180;23057;48.554;14.454;2022-09-19T03:18:22;93245.00;;;13.00
41940;BMP180;23057;48.554;14.454;2022-09-19T03:20:59;93236.00;;;13.00
41940;BMP180;23057;48.554;14.454;2022-09-19T03:23:52;93235.00;;;13.00
41940;BMP180;23057;48.554;14.454;2022-09-19T03:26:32;93247.00;;;13.00
41940;BMP180;23057;48.554;14.454;2022-09-19T03:29:07;93250.00;;;12.90
41940;BMP180;23057;48.554;14.454;2022-09-19T03:31:39;93250.00;;;12.90
41940;BMP180;23057;48.554;14.454;2022-09-19T03:34:10;93239.00;;;12.80
41940;BMP180;23057;48.554;14.454;2022-09-19T03:36:42;93240.00;;;12.80
41940;BMP180;23057;48.554;14.454;2022-09-19T03:39:14;93249.00;;;12.70
41940;BMP180;23057;48.554;14.454;2022-09-19T03:41:45;93249.00;;;12.70
41940;BMP180;23057;48.554;14.454;2022-09-19T03:44:16;93246.00;;;12.70
41940;BMP180;23057;48.554;14.454;2022-09-19T03:46:49;93259.00;;;12.70
41940;BMP180;23057;48.554;14.454;2022-09-19T03:49:21;93270.00;;;12.70
41940;BMP180;23057;48.554;14.454;2022-09-19T03:51:52;93268.00;;;12.60
41940;BMP180;23057;48.554;14.454;2022-09-19T03:54:23;93266.00;;;12.60
41940;BMP180;23057;48.554;14.454;2022-09-19T03:56:54;93272.00;;;12.60
41940;BMP180;23057;48.554;14.454;2022-09-19T03:59:25;93275.00;;;12.60
41940;BMP180;23057;48.554;14.454;2022-09-19T04:01:55;93281.00;;;12.60
41940;BMP180;23057;48.554;14.454;2022-09-19T04:04:26;93284.00;;;12.50
41940;BMP180;23057;48.554;14.454;2022-09-19T04:06:57;93281.00;;;12.50
41940;BMP180;23057;48.554;14.454;2022-09-19T04:09:29;93281.00;;;12.40
41940;BMP180;23057;48.554;14.454;2022-09-19T04:12:00;93283.00;;;12.40
41940;BMP180;23057;48.554;14.454;2022-09-19T04:14:34;93289.00;;;12.40
41940;BMP180;23057;48.554;14.454;2022-09-19T04:17:05;93294.00;;;12.30
41940;BMP180;23057;48.554;14.454;2022-09-19T04:19:38;93290.00;;;12.30
41940;BMP180;23057;48.554;14.454;2022-09-19T04:22:09;93294.00;;;12.30
41940;BMP180;23057;48.554;14.454;2022-09-19T04:24:40;93295.00;;;12.40
41940;BMP180;23057;48.554;14.454;2022-09-19T04:27:13;93294.00;;;12.40
41940;BMP180;23057;48.554;14.454;2022-09-19T04:29:44;93294.00;;;12.40
41940;BMP180;23057;48.554;14.454;2022-09-19T04:32:15;93293.00;;;12.40
41940;BMP180;23057;48.554;14.454;2022-09-19T04:34:46;93296.00;;;12.40
41940;BMP180;23057;48.554;14.454;2022-09-19T04:37:17;93290.00;;;12.40
41940;BMP180;23057;48.554;14.454;2022-09-19T04:39:48;93303.00;;;12.50
41940;BMP180;23057;48.554;14.454;2022-09-19T04:42:19;93314.00;;;12.50
41940;BMP180;23057;48.554;14.454;2022-09-19T04:44:50;93313.00;;;12.50
41940;BMP180;23057;48.554;14.454;2022-09-19T04:47:24;93317.00;;;12.50
41940;BMP180;23057;48.554;14.454;2022-09-19T04:49:54;93313.00;;;12.50
41940;BMP180;23057;48.554;14.454;2022-09-19T04:52:26;93321.00;;;12.50
41940;BMP180;23057;48.554;14.454;2022-09-19T04:54:57;93319.00;;;12.50
41940;BMP180;23057;48.554;14.454;2022-09-19T04:57:28;93321.00;;;12.50
41940;BMP180;23057;48.554;14.454;2022-09-19T04:59:58;93321.00;;;12.50
41940;BMP180;23057;48.554;14.454;2022-09-19T05:02:29;93333.00;;;12.50
41940;BMP180;23057;48.554;14.454;2022-09-19T05:05:03;93338.00;;;12.50
41940;BMP180;23057;48.554;14.454;2022-09-19T05:07:34;93338.00;;;12.50
41940;BMP180;23057;48.554;14.454;2022-09-19T05:10:06;93350.00;;;12.50
41940;BMP180;23057;48.554;14.454;2022-09-19T05:12:37;93346.00;;;12.50
41940;BMP180;23057;48.554;14.454;2022-09-19T05:15:09;93339.00;;;12.50
41940;BMP180;23057;48.554;14.454;2022-09-19T05:17:40;93349.00;;;12.50
41940;BMP180;23057;48.554;14.454;2022-09-19T05:20:10;93357.00;;;12.50
41940;BMP180;23057;48.554;14.454;2022-09-19T05:22:44;93364.00;;;12.50
41940;BMP180;23057;48.554;14.454;2022-09-19T05:25:14;93358.00;;;12.50
41940;BMP180;23057;48.554;14.454;2022-09-19T05:27:45;93364.00;;;12.50
41940;BMP180;23057;48.554;14.454;2022-09-19T05:30:16;93370.00;;;12.60
41940;BMP180;23057;48.554;14.454;2022-09-19T05:32:47;93366.00;;;12.60
41940;BMP180;23057;48.554;14.454;2022-09-19T05:35:18;93356.00;;;12.60
41940;BMP180;23057;48.554;14.454;2022-09-19T05:37:51;93367.00;;;12.60
41940;BMP180;23057;48.554;14.454;2022-09-19T05:40:22;93366.00;;;12.70
41940;BMP180;23057;48.554;14.454;2022-09-19T05:42:53;93368.00;;;12.70
41940;BMP180;23057;48.554;14.454;2022-09-19T05:45:30;93366.00;;;12.70
41940;BMP180;23057;48.554;14.454;2022-09-19T05:48:06;93363.00;;;12.70
41940;BMP180;23057;48.554;14.454;2022-09-19T05:50:37;93364.00;;;12.80
41940;BMP180;23057;48.554;14.454;2022-09-19T05:53:09;93363.00;;;12.80
41940;BMP180;23057;48.554;14.454;2022-09-19T05:55:59;93353.00;;;12.70
41940;BMP180;23057;48.554;14.454;2022-09-19T05:58:31;93358.00;;;12.70
41940;BMP180;23057;48.554;14.454;2022-09-19T06:01:09;93357.00;;;12.60
41940;BMP180;23057;48.554;14.454;2022-09-19T06:03:41;93354.00;;;12.60
41940;BMP180;23057;48.554;14.454;2022-09-19T06:06:14;93357.00;;;12.60
41940;BMP180;23057;48.554;14.454;2022-09-19T06:08:56;93355.00;;;12.60
41940;BMP180;23057;48.554;14.454;2022-09-19T06:11:27;93357.00;;;12.60
41940;BMP180;23057;48.554;14.454;2022-09-19T06:13:58;93355.00;;;12.60
41940;BMP180;23057;48.554;14.454;2022-09-19T06:16:44;93361.00;;;12.50
41940;BMP180;23057;48.554;14.454;2022-09-19T06:19:15;93366.00;;;12.50
41940;BMP180;23057;48.554;14.454;2022-09-19T06:21:46;93351.00;;;12.50
41940;BMP180;23057;48.554;14.454;2022-09-19T06:24:16;93354.00;;;12.50
41940;BMP180;23057;48.554;14.454;2022-09-19T06:26:47;93365.00;;;12.50
41940;BMP180;23057;48.554;14.454;2022-09-19T06:29:18;93362.00;;;12.50
41940;BMP180;23057;48.554;14.454;2022-09-19T06:31:49;93379.00;;;12.50
41940;BMP180;23057;48.554;14.454;2022-09-19T06:34:19;93372.00;;;12.50
41940;BMP180;23057;48.554;14.454;2022-09-19T06:36:51;93374.00;;;12.50
41940;BMP180;23057;48.554;14.454;2022-09-19T06:39:22;93389.00;;;12.50
41940;BMP180;23057;48.554;14.454;2022-09-19T06:41:55;93385.00;;;12.50
41940;BMP180;23057;48.554;14.454;2022-09-19T06:44:26;93389.00;;;12.50
41940;BMP180;23057;48.554;14.454;2022-09-19T06:46:57;93392.00;;;12.50
41940;BMP180;23057;48.554;14.454;2022-09-19T06:49:29;93395.00;;;12.50
41940;BMP180;23057;48.554;14.454;2022-09-19T06:52:01;93394.00;;;12.50
41940;BMP180;23057;48.554;14.454;2022-09-19T06:54:32;93399.00;;;12.40
41940;BMP180;23057;48.554;14.454;2022-09-19T06:57:03;93412.00;;;12.40
41940;BMP180;23057;48.554;14.454;2022-09-19T06:59:34;93418.00;;;12.40
41940;BMP180;23057;48.554;14.454;2022-09-19T07:02:05;93420.00;;;12.40
41940;BMP180;23057;48.554;14.454;2022-09-19T07:04:36;93422.00;;;12.40
41940;BMP180;23057;48.554;14.454;2022-09-19T07:07:07;93422.00;;;12.40
41940;BMP180;23057;48.554;14.454;2022-09-19T07:09:38;93433.00;;;12.40
41940;BMP180;23057;48.554;14.454;2022-09-19T07:12:09;93430.00;;;12.50
41940;BMP180;23057;48.554;14.454;2022-09-19T07:14:40;93440.00;;;12.50
41940;BMP180;23057;48.554;14.454;2022-09-19T07:17:11;93447.00;;;12.50
41940;BMP180;23057;48.554;14.454;2022-09-19T07:19:46;93449.00;;;12.60
41940;BMP180;23057;48.554;14.454;2022-09-19T07:22:17;93456.00;;;12.60
41940;BMP180;23057;48.554;14.454;2022-09-19T07:24:49;93462.00;;;12.60
41940;BMP180;23057;48.554;14.454;2022-09-19T07:27:20;93457.00;;;12.60
41940;BMP180;23057;48.554;14.454;2022-09-19T07:29:51;93466.00;;;12.70
41940;BMP180;23057;48.554;14.454;2022-09-19T07:32:22;93465.00;;;12.70
41940;BMP180;23057;48.554;14.454;2022-09-19T07:34:52;93475.00;;;12.80
41940;BMP180;23057;48.554;14.454;2022-09-19T07:37:23;93461.00;;;12.80
41940;BMP180;23057;48.554;14.454;2022-09-19T07:39:54;93470.00;;;12.90
41940;BMP180;23057;48.554;14.454;2022-09-19T07:42:25;93475.00;;;13.00
41940;BMP180;23057;48.554;14.454;2022-09-19T07:44:55;93473.00;;;13.10
41940;BMP180;23057;48.554;14.454;2022-09-19T07:47:26;93482.00;;;13.20
41940;BMP180;23057;48.554;14.454;2022-09-19T07:49:57;93487.00;;;13.30
41940;BMP180;23057;48.554;14.454;2022-09-19T07:52:28;93499.00;;;13.40
41940;BMP180;23057;48.554;14.454;2022-09-19T07:54:58;93497.00;;;13.50
41940;BMP180;23057;48.554;14.454;2022-09-19T07:57:29;93508.00;;;13.50
41940;BMP180;23057;48.554;14.454;2022-09-19T08:00:01;93504.00;;;13.50
41940;BMP180;23057;48.554;14.454;2022-09-19T08:02:32;93500.00;;;13.60
41940;BMP180;23057;48.554;14.454;2022-09-19T08:05:03;93513.00;;;13.60
41940;BMP180;23057;48.554;14.454;2022-09-19T08:07:35;93515.00;;;13.60
41940;BMP180;23057;48.554;14.454;2022-09-19T08:10:06;93528.00;;;13.70
41940;BMP180;23057;48.554;14.454;2022-09-19T08:12:38;93530.00;;;13.80
41940;BMP180;23057;48.554;14.454;2022-09-19T08:15:09;93534.00;;;13.90
41940;BMP180;23057;48.554;14.454;2022-09-19T08:17:40;93538.00;;;14.00
41940;BMP180;23057;48.554;14.454;2022-09-19T08:20:10;93527.00;;;14.10
41940;BMP180;23057;48.554;14.454;2022-09-19T08:22:42;93522.00;;;14.30
41940;BMP180;23057;48.554;14.454;2022-09-19T08:25:13;93525.00;;;14.40
41940;BMP180;23057;48.554;14.454;2022-09-19T08:27:45;93519.00;;;14.60
41940;BMP180;23057;48.554;14.454;2022-09-19T08:30:19;93536.00;;;14.60
41940;BMP180;23057;48.554;14.454;2022-09-19T08:32:50;93538.00;;;14.80
41940;BMP180;23057;48.554;14.454;2022-09-19T08:35:23;93543.00;;;14.80
41940;BMP180;23057;48.554;14.454;2022-09-19T08:37:56;93549.00;;;14.90
41940;BMP180;23057;48.554;14.454;2022-09-19T08:51:26;93560.00;;;15.00
41940;BMP180;23057;48.554;14.454;2022-09-19T08:54:05;93569.00;;;15.00
41940;BMP180;23057;48.554;14.454;2022-09-19T08:56:43;93568.00;;;15.10
41940;BMP180;23057;48.554;14.454;2022-09-19T08:59:17;93573.00;;;15.20
41940;BMP180;23057;48.554;14.454;2022-09-19T09:04:52;93576.00;;;15.40
41940;BMP180;23057;48.554;14.454;2022-09-19T09:08:08;93581.00;;;15.50
41940;BMP180;23057;48.554;14.454;2022-09-19T09:10:51;93579.00;;;15.50
41940;BMP180;23057;48.554;14.454;2022-09-19T09:16:19;93580.00;;;15.60
41940;BMP180;23057;48.554;14.454;2022-09-19T09:20:08;93581.00;;;15.60
41940;BMP180;23057;48.554;14.454;2022-09-19T09:22:48;93590.00;;;15.60
41940;BMP180;23057;48.554;14.454;2022-09-19T09:25:31;93594.00;;;15.60
41940;BMP180;23057;48.554;14.454;2022-09-19T09:28:22;93595.00;;;15.70
41940;BMP180;23057;48.554;14.454;2022-09-19T09:34:05;93593.00;;;15.70
41940;BMP180;23057;48.554;14.454;2022-09-19T09:37:02;93594.00;;;15.60
41940;BMP180;23057;48.554;14.454;2022-09-19T09:39:40;93601.00;;;15.60
41940;BMP180;23057;48.554;14.454;2022-09-19T09:45:44;93600.00;;;15.60
41940;BMP180;23057;48.554;14.454;2022-09-19T09:56:45;93611.00;;;15.60
41940;BMP180;23057;48.554;14.454;2022-09-19T09:59:39;93605.00;;;15.60
41940;BMP180;23057;48.554;14.454;2022-09-19T10:09:12;93615.00;;;15.50
41940;BMP180;23057;48.554;14.454;2022-09-19T10:11:57;93613.00;;;15.50
41940;BMP180;23057;48.554;14.454;2022-09-19T10:14:37;93616.00;;;15.50
41940;BMP180;23057;48.554;14.454;2022-09-19T10:17:09;93611.00;;;15.50
41940;BMP180;23057;48.554;14.454;2022-09-19T10:19:50;93625.00;;;15.50
41940;BMP180;23057;48.554;14.454;2022-09-19T10:22:27;93625.00;;;15.40
41940;BMP180;23057;48.554;14.454;2022-09-19T10:24:59;93627.00;;;15.40
41940;BMP180;23057;48.554;14.454;2022-09-19T10:27:39;93625.00;;;15.50
41940;BMP180;23057;48.554;14.454;2022-09-19T10:32:55;93633.00;;;15.40
41940;BMP180;23057;48.554;14.454;2022-09-19T10:35:31;93637.00;;;15.40
41940;BMP180;23057;48.554;14.454;2022-09-19T10:38:14;93635.00;;;15.40
41940;BMP180;23057;48.554;14.454;2022-09-19T10:43:30;93645.00;;;15.40
41940;BMP180;23057;48.554;14.454;2022-09-19T10:46:16;93652.00;;;15.40
41940;BMP180;23057;48.554;14.454;2022-09-19T10:48:58;93651.00;;;15.40
41940;BMP180;23057;48.554;14.454;2022-09-19T10:51:41;93660.00;;;15.40
41940;BMP180;23057;48.554;14.454;2022-09-19T10:54:30;93658.00;;;15.40
41940;BMP180;23057;48.554;14.454;2022-09-19T11:00:21;93666.00;;;15.50
41940;BMP180;23057;48.554;14.454;2022-09-19T11:03:02;93673.00;;;15.60
41940;BMP180;23057;48.554;14.454;2022-09-19T11:05:34;93674.00;;;15.60
41940;BMP180;23057;48.554;14.454;2022-09-19T11:08:25;93671.00;;;15.70
41940;BMP180;23057;48.554;14.454;2022-09-19T11:10:57;93682.00;;;15.70
41940;BMP180;23057;48.554;14.454;2022-09-19T11:13:30;93676.00;;;15.70
41940;BMP180;23057;48.554;14.454;2022-09-19T11:16:27;93677.00;;;15.80
41940;BMP180;23057;48.554;14.454;2022-09-19T11:37:43;93686.00;;;15.50
41940;BMP180;23057;48.554;14.454;2022-09-19T11:43:24;93689.00;;;15.40
41940;BMP180;23057;48.554;14.454;2022-09-19T11:49:41;93708.00;;;15.40
41940;BMP180;23057;48.554;14.454;2022-09-19T11:52:34;93701.00;;;15.50
41940;BMP180;23057;48.554;14.454;2022-09-19T12:04:41;93703.00;;;15.60
41940;BMP180;23057;48.554;14.454;2022-09-19T12:07:50;93702.00;;;15.60
41940;BMP180;23057;48.554;14.454;2022-09-19T12:10:55;93701.00;;;15.60
41940;BMP180;23057;48.554;14.454;2022-09-19T12:13:51;93700.00;;;15.60
41940;BMP180;23057;48.554;14.454;2022-09-19T12:19:34;93692.00;;;15.70
41940;BMP180;23057;48.554;14.454;2022-09-19T12:22:22;93705.00;;;15.70
41940;BMP180;23057;48.554;14.454;2022-09-19T12:25:02;93695.00;;;15.80
41940;BMP180;23057;48.554;14.454;2022-09-19T12:27:58;93704.00;;;15.80
41940;BMP180;23057;48.554;14.454;2022-09-19T12:30:36;93695.00;;;15.70
41940;BMP180;23057;48.554;14.454;2022-09-19T12:36:29;93696.00;;;15.70
41940;BMP180;23057;48.554;14.454;2022-09-19T12:39:11;93697.00;;;15.80
41940;BMP180;23057;48.554;14.454;2022-09-19T12:42:13;93691.00;;;15.80
41940;BMP180;23057;48.554;14.454;2022-09-19T12:45:04;93699.00;;;15.80
41940;BMP180;23057;48.554;14.454;2022-09-19T12:51:08;93700.00;;;15.90
41940;BMP180;23057;48.554;14.454;2022-09-19T12:53:52;93697.00;;;15.90
41940;BMP180;23057;48.554;14.454;2022-09-19T12:56:32;93684.00;;;15.90
41940;BMP180;23057;48.554;14.454;2022-09-19T12:59:27;93693.00;;;15.90
41940;BMP180;23057;48.554;14.454;2022-09-19T13:05:03;93693.00;;;15.90
41940;BMP180;23057;48.554;14.454;2022-09-19T13:07:49;93699.00;;;15.90
41940;BMP180;23057;48.554;14.454;2022-09-19T13:15:59;93705.00;;;15.80
41940;BMP180;23057;48.554;14.454;2022-09-19T13:18:35;93697.00;;;15.80
41940;BMP180;23057;48.554;14.454;2022-09-19T13:21:42;93702.00;;;15.80
41940;BMP180;23057;48.554;14.454;2022-09-19T13:24:53;93691.00;;;15.80
41940;BMP180;23057;48.554;14.454;2022-09-19T13:27:29;93703.00;;;15.80
41940;BMP180;23057;48.554;14.454;2022-09-19T13:30:01;93711.00;;;15.90
41940;BMP180;23057;48.554;14.454;2022-09-19T13:32:55;93710.00;;;15.90
41940;BMP180;23057;48.554;14.454;2022-09-19T13:35:47;93712.00;;;16.00
41940;BMP180;23057;48.554;14.454;2022-09-19T13:38:23;93710.00;;;16.00
41940;BMP180;23057;48.554;14.454;2022-09-19T13:41:12;93714.00;;;16.00
41940;BMP180;23057;48.554;14.454;2022-09-19T13:44:24;93714.00;;;16.10
41940;BMP180;23057;48.554;14.454;2022-09-19T13:47:09;93715.00;;;16.10
41940;BMP180;23057;48.554;14.454;2022-09-19T13:49:55;93719.00;;;16.10
41940;BMP180;23057;48.554;14.454;2022-09-19T13:52:44;93731.00;;;16.20
41940;BMP180;23057;48.554;14.454;2022-09-19T13:55:31;93728.00;;;16.20
41940;BMP180;23057;48.554;14.454;2022-09-19T13:58:17;93731.00;;;16.30
41940;BMP180;23057;48.554;14.454;2022-09-19T14:03:57;93736.00;;;16.30
41940;BMP180;23057;48.554;14.454;2022-09-19T14:06:57;93730.00;;;16.40
41940;BMP180;23057;48.554;14.454;2022-09-19T14:09:37;93731.00;;;16.40
41940;BMP180;23057;48.554;14.454;2022-09-19T14:23:40;93733.00;;;16.60
41940;BMP180;23057;48.554;14.454;2022-09-19T14:40:37;93740.00;;;16.60
41940;BMP180;23057;48.554;14.454;2022-09-19T14:46:45;93726.00;;;16.40
41940;BMP180;23057;48.554;14.454;2022-09-19T14:49:25;93738.00;;;16.40
41940;BMP180;23057;48.554;14.454;2022-09-19T14:52:14;93731.00;;;16.40
41940;BMP180;23057;48.554;14.454;2022-09-19T14:55:05;93731.00;;;16.50
41940;BMP180;23057;48.554;14.454;2022-09-19T14:57:47;93728.00;;;16.40
41940;BMP180;23057;48.554;14.454;2022-09-19T15:00:25;93728.00;;;16.40
41940;BMP180;23057;48.554;14.454;2022-09-19T15:03:10;93727.00;;;16.30
41940;BMP180;23057;48.554;14.454;2022-09-19T15:05:44;93731.00;;;16.30
41940;BMP180;23057;48.554;14.454;2022-09-19T15:08:24;93743.00;;;16.30
41940;BMP180;23057;48.554;14.454;2022-09-19T15:11:00;93743.00;;;16.30
41940;BMP180;23057;48.554;14.454;2022-09-19T15:13:33;93745.00;;;16.40
41940;BMP180;23057;48.554;14.454;2022-09-19T15:16:08;93737.00;;;16.50
41940;BMP180;23057;48.554;14.454;2022-09-19T15:18:44;93750.00;;;16.60
41940;BMP180;23057;48.554;14.454;2022-09-19T15:21:21;93741.00;;;16.70
41940;BMP180;23057;48.554;14.454;2022-09-19T15:23:59;93743.00;;;16.70
41940;BMP180;23057;48.554;14.454;2022-09-19T15:26:40;93742.00;;;16.80
41940;BMP180;23057;48.554;14.454;2022-09-19T15:29:24;93744.00;;;16.80
41940;BMP180;23057;48.554;14.454;2022-09-19T15:32:13;93750.00;;;16.90
41940;BMP180;23057;48.554;14.454;2022-09-19T15:35:02;93752.00;;;16.90
41940;BMP180;23057;48.554;14.454;2022-09-19T15:37:37;93756.00;;;16.90
41940;BMP180;23057;48.554;14.454;2022-09-19T15:40:23;93754.00;;;16.90
41940;BMP180;23057;48.554;14.454;2022-09-19T15:42:55;93756.00;;;16.80
41940;BMP180;23057;48.554;14.454;2022-09-19T15:45:34;93758.00;;;16.80
41940;BMP180;23057;48.554;14.454;2022-09-19T15:48:22;93760.00;;;16.70
41940;BMP180;23057;48.554;14.454;2022-09-19T15:51:02;93767.00;;;16.70
41940;BMP180;23057;48.554;14.454;2022-09-19T15:53:40;93764.00;;;16.70
41940;BMP180;23057;48.554;14.454;2022-09-19T15:56:12;93761.00;;;16.70
41940;BMP180;23057;48.554;14.454;2022-09-19T15:58:54;93761.00;;;16.70
41940;BMP180;23057;48.554;14.454;2022-09-19T16:01:32;93763.00;;;16.70
41940;BMP180;23057;48.554;14.454;2022-09-19T16:04:16;93764.00;;;16.60
41940;BMP180;23057;48.554;14.454;2022-09-19T16:12:56;93763.00;;;16.50
41940;BMP180;23057;48.554;14.454;2022-09-19T16:15:30;93767.00;;;16.50
41940;BMP180;23057;48.554;14.454;2022-09-19T16:18:13;93770.00;;;16.50
41940;BMP180;23057;48.554;14.454;2022-09-19T16:20:53;93773.00;;;16.40
41940;BMP180;23057;48.554;14.454;2022-09-19T16:23:40;93782.00;;;16.40
41940;BMP180;23057;48.554;14.454;2022-09-19T16:26:15;93783.00;;;16.30
41940;BMP180;23057;48.554;14.454;2022-09-19T16:28:54;93784.00;;;16.30
41940;BMP180;23057;48.554;14.454;2022-09-19T16:31:37;93787.00;;;16.30
41940;BMP180;23057;48.554;14.454;2022-09-19T16:36:59;93799.00;;;16.20
41940;BMP180;23057;48.554;14.454;2022-09-19T16:47:30;93801.00;;;15.90
41940;BMP180;23057;48.554;14.454;2022-09-19T16:50:00;93805.00;;;15.90
41940;BMP180;23057;48.554;14.454;2022-09-19T16:52:34;93807.00;;;15.90
41940;BMP180;23057;48.554;14.454;2022-09-19T16:55:18;93812.00;;;15.90
41940;BMP180;23057;48.554;14.454;2022-09-19T16:57:56;93818.00;;;15.80
41940;BMP180;23057;48.554;14.454;2022-09-19T17:00:28;93819.00;;;15.80
41940;BMP180;23057;48.554;14.454;2022-09-19T17:02:59;93811.00;;;15.70
41940;BMP180;23057;48.554;14.454;2022-09-19T17:05:32;93812.00;;;15.60
41940;BMP180;23057;48.554;14.454;2022-09-19T17:08:04;93815.00;;;15.60
41940;BMP180;23057;48.554;14.454;2022-09-19T17:10:37;93829.00;;;15.50
41940;BMP180;23057;48.554;14.454;2022-09-19T17:13:11;93825.00;;;15.40
41940;BMP180;23057;48.554;14.454;2022-09-19T17:15:49;93835.00;;;15.40
41940;BMP180;23057;48.554;14.454;2022-09-19T17:18:24;93829.00;;;15.40
41940;BMP180;23057;48.554;14.454;2022-09-19T17:20:58;93835.00;;;15.30
41940;BMP180;23057;48.554;14.454;2022-09-19T17:23:30;93838.00;;;15.30
41940;BMP180;23057;48.554;14.454;2022-09-19T17:26:01;93832.00;;;15.30
41940;BMP180;23057;48.554;14.454;2022-09-19T17:28:33;93837.00;;;15.30
41940;BMP180;23057;48.554;14.454;2022-09-19T17:31:07;93833.00;;;15.20
41940;BMP180;23057;48.554;14.454;2022-09-19T17:33:41;93849.00;;;15.20
41940;BMP180;23057;48.554;14.454;2022-09-19T17:36:12;93843.00;;;15.20
41940;BMP180;23057;48.554;14.454;2022-09-19T17:38:45;93847.00;;;15.20